Time;durP1;ratioP1;P1;durP2;ratioP2;P2;SDS_P1;SDS_P2;PMS_P1;PMS_P2;Temp;Humidity;BMP_temperature;BMP_pressure;BME280_temperature;BME280_humidity;BME280_pressure;Samples;Min_cycle;Max_cycle;Signal;HPM_P1;HPM_P2
2022/10/03 00:01:36;;;;;;;15.25;9.88;;;;;;;;;;12950526;22;20344;-79
2022/10/03 00:06:55;;;;;;;12.48;9.38;;;;;;;;;;12975671;22;20015;-80
2022/10/03 00:12:11;;;;;;;14.88;10.38;;;;;;;;;;12949128;22;20042;-79
2022/10/03 00:17:24;;;;;;;12.93;8.30;;;;;;;;;;12975088;22;20440;-79
2022/10/03 00:22:45;;;;;;;12.70;8.95;;;;;;;;;;12923462;22;20011;-81
2022/10/03 00:27:52;;;;;;;15.02;10.13;;;;;;;;;;12951183;22;20019;-79
2022/10/03 00:33:12;;;;;;;15.37;9.17;;;;;;;;;;12873664;22;1125381;-79
2022/10/03 00:38:15;;;;;;;16.17;10.23;;;;;;;;;;12949983;22;20452;-78
2022/10/03 00:43:38;;;;;;;15.80;9.68;;;;;;;;;;12977634;22;20007;-79
2022/10/03 00:48:59;;;;;;;13.70;8.93;;;;;;;;;;12949033;22;20008;-79
2022/10/03 00:54:17;;;;;;;15.73;8.68;;;;;;;;;;12947418;22;20114;-78
2022/10/03 00:59:37;;;;;;;125.50;14.05;;;;;;;;;;12948386;22;20012;-78
2022/10/03 01:04:52;;;;;;;13.05;9.10;;;;;;;;;;12976453;22;20137;-79
2022/10/03 01:10:15;;;;;;;27.63;11.38;;;;;;;;;;12976094;22;20407;-79
2022/10/03 01:15:30;;;;;;;30.58;11.27;;;;;;;;;;12906156;22;20012;-82
2022/10/03 01:20:32;;;;;;;16.88;9.07;;;;;;;;;;12949396;22;20508;-79
2022/10/03 01:25:57;;;;;;;16.60;10.70;;;;;;;;;;12951905;22;20035;-80
2022/10/03 01:31:01;;;;;;;13.48;8.30;;;;;;;;;;12978778;22;20011;-80
2022/10/03 01:36:09;;;;;;;13.70;9.73;;;;;;;;;;12981590;22;20043;-79
2022/10/03 01:41:19;;;;;;;59.83;12.50;;;;;;;;;;12995410;22;20059;-79
2022/10/03 01:46:27;;;;;;;19.27;9.88;;;;;;;;;;13006519;22;20103;-79
2022/10/03 01:51:37;;;;;;;19.17;10.05;;;;;;;;;;12961169;22;20007;-79
2022/10/03 01:57:00;;;;;;;14.82;9.57;;;;;;;;;;12980167;22;20023;-76
2022/10/03 02:02:20;;;;;;;15.30;9.63;;;;;;;;;;12979695;22;20070;-78
2022/10/03 02:07:20;;;;;;;16.27;10.82;;;;;;;;;;12954029;22;20016;-77
2022/10/03 02:12:21;;;;;;;20.30;12.00;;;;;;;;;;12980644;22;20090;-79
2022/10/03 02:17:27;;;;;;;22.58;11.32;;;;;;;;;;12979825;22;20033;-78
2022/10/03 02:22:32;;;;;;;20.25;10.35;;;;;;;;;;12978462;22;20379;-78
2022/10/03 02:27:45;;;;;;;18.90;11.02;;;;;;;;;;12952874;22;20016;-78
2022/10/03 02:33:04;;;;;;;21.60;10.90;;;;;;;;;;12951526;22;20012;-77
2022/10/03 02:38:04;;;;;;;19.95;11.40;;;;;;;;;;12979080;22;20019;-78
2022/10/03 02:43:10;;;;;;;24.83;13.63;;;;;;;;;;12978000;22;20035;-76
2022/10/03 02:48:26;;;;;;;20.75;12.57;;;;;;;;;;12950794;22;20062;-76
2022/10/03 02:53:26;;;;;;;26.27;13.40;;;;;;;;;;12977563;22;20038;-77
2022/10/03 02:58:45;;;;;;;26.60;14.00;;;;;;;;;;12976732;22;20023;-76
2022/10/03 03:03:59;;;;;;;22.25;13.02;;;;;;;;;;12977117;22;20066;-76
2022/10/03 03:09:17;;;;;;;18.70;10.63;;;;;;;;;;12977061;22;20011;-76
2022/10/03 03:14:23;;;;;;;21.70;11.48;;;;;;;;;;12977175;22;20091;-78
2022/10/03 03:19:33;;;;;;;16.77;10.75;;;;;;;;;;12977751;22;20004;-79
2022/10/03 03:24:48;;;;;;;18.10;10.63;;;;;;;;;;12978243;22;20014;-79
2022/10/03 03:30:02;;;;;;;13.63;9.00;;;;;;;;;;12978989;22;20007;-82
2022/10/03 03:35:04;;;;;;;19.63;10.93;;;;;;;;;;12951082;22;20019;-79
2022/10/03 03:40:06;;;;;;;18.13;9.48;;;;;;;;;;12977113;22;20012;-79
2022/10/03 03:45:29;;;;;;;28.63;10.80;;;;;;;;;;12979951;22;20012;-78
2022/10/03 03:50:42;;;;;;;14.05;8.75;;;;;;;;;;12952383;22;20016;-80
2022/10/03 03:55:48;;;;;;;16.38;9.50;;;;;;;;;;12983695;22;20030;-80
2022/10/03 04:00:58;;;;;;;18.95;9.07;;;;;;;;;;12949850;22;20520;-78
2022/10/03 04:06:17;;;;;;;15.23;9.68;;;;;;;;;;12977668;22;20012;-80
2022/10/03 04:11:26;;;;;;;14.85;9.07;;;;;;;;;;12977951;22;20015;-81
2022/10/03 04:21:49;;;;;;;20.80;9.55;;;;;;;;;;12977388;22;20000;-79
2022/10/03 04:27:00;;;;;;;23.50;10.00;;;;;;;;;;12950232;22;20428;-78
2022/10/03 04:32:16;;;;;;;18.98;10.05;;;;;;;;;;12977385;22;20036;-77
2022/10/03 04:37:23;;;;;;;16.85;9.30;;;;;;;;;;12995364;22;20031;-77
2022/10/03 04:42:35;;;;;;;16.10;8.75;;;;;;;;;;13033569;22;20012;-81
2022/10/03 04:47:44;;;;;;;14.90;9.05;;;;;;;;;;13027447;22;20022;-77
2022/10/03 04:52:52;;;;;;;18.90;9.55;;;;;;;;;;12952897;22;20004;-77
2022/10/03 04:57:57;;;;;;;14.40;8.95;;;;;;;;;;12976483;22;20066;-76
2022/10/03 05:03:09;;;;;;;23.50;10.00;;;;;;;;;;12949255;22;20038;-76
2022/10/03 05:08:28;;;;;;;16.08;9.25;;;;;;;;;;12949391;22;20023;-77
2022/10/03 05:13:55;;;;;;;17.38;10.93;;;;;;;;;;12980619;22;20450;-77
2022/10/03 05:19:05;;;;;;;17.15;9.38;;;;;;;;;;12981221;22;20062;-77
2022/10/03 05:24:21;;;;;;;20.40;9.88;;;;;;;;;;12955207;22;20012;-76
2022/10/03 05:29:34;;;;;;;17.25;9.73;;;;;;;;;;12986148;22;20347;-79
2022/10/03 05:34:52;;;;;;;16.85;9.63;;;;;;;;;;12982579;22;20640;-78
2022/10/03 05:40:01;;;;;;;22.85;11.82;;;;;;;;;;12983935;22;20019;-77
2022/10/03 05:45:04;;;;;;;18.35;10.13;;;;;;;;;;12984119;22;20023;-78
2022/10/03 05:50:14;;;;;;;24.25;11.52;;;;;;;;;;12984157;22;20115;-76
2022/10/03 05:55:33;;;;;;;21.95;11.55;;;;;;;;;;12971478;22;20027;-77
2022/10/03 06:00:44;;;;;;;21.10;10.82;;;;;;;;;;12983113;22;20016;-79
2022/10/03 06:06:00;;;;;;;22.13;12.18;;;;;;;;;;12980794;22;20031;-78
2022/10/03 06:11:15;;;;;;;24.02;12.75;;;;;;;;;;12954739;22;20015;-80
2022/10/03 06:16:21;;;;;;;19.45;11.15;;;;;;;;;;12955915;22;20018;-78
2022/10/03 06:21:41;;;;;;;24.55;12.52;;;;;;;;;;12978863;22;20004;-74
2022/10/03 06:27:01;;;;;;;23.77;14.52;;;;;;;;;;12977916;22;20020;-77
2022/10/03 06:32:26;;;;;;;20.88;12.25;;;;;;;;;;12978586;22;20016;-76
2022/10/03 06:37:48;;;;;;;23.88;13.40;;;;;;;;;;12910546;22;20027;-78
2022/10/03 06:43:09;;;;;;;24.23;12.25;;;;;;;;;;12902936;22;20046;-76
2022/10/03 06:48:23;;;;;;;39.17;21.63;;;;;;;;;;12978657;22;20432;-77
2022/10/03 06:53:30;;;;;;;23.17;12.40;;;;;;;;;;12982530;22;20036;-78
2022/10/03 06:58:30;;;;;;;29.33;12.90;;;;;;;;;;12936016;22;20027;-78
2022/10/03 07:03:41;;;;;;;20.53;10.50;;;;;;;;;;13022340;22;20034;-78
2022/10/03 07:08:57;;;;;;;21.38;11.02;;;;;;;;;;13009889;22;20265;-79
2022/10/03 07:14:16;;;;;;;15.60;9.45;;;;;;;;;;13038944;22;20023;-78
2022/10/03 07:19:30;;;;;;;21.90;10.38;;;;;;;;;;13005379;22;20011;-78
2022/10/03 07:24:30;;;;;;;17.00;9.88;;;;;;;;;;12986566;22;20541;-79
2022/10/03 07:29:49;;;;;;;18.83;10.52;;;;;;;;;;12986435;22;20030;-80
2022/10/03 07:35:08;;;;;;;17.50;8.88;;;;;;;;;;13000694;22;20015;-82
2022/10/03 07:40:21;;;;;;;18.05;10.57;;;;;;;;;;13013962;22;20016;-75
2022/10/03 07:45:38;;;;;;;13.87;9.33;;;;;;;;;;12967786;22;21952;-77
2022/10/03 07:51:02;;;;;;;17.00;9.02;;;;;;;;;;12979067;22;20333;-79
2022/10/03 07:56:24;;;;;;;16.77;9.32;;;;;;;;;;12984171;22;20325;-83
2022/10/03 08:01:42;;;;;;;14.05;8.70;;;;;;;;;;12981945;22;20012;-81
2022/10/03 08:07:08;;;;;;;13.75;7.32;;;;;;;;;;12977844;22;20373;-81
2022/10/03 08:12:14;;;;;;;13.05;7.70;;;;;;;;;;12904662;22;20082;-81
2022/10/03 08:17:21;;;;;;;13.25;7.75;;;;;;;;;;12977158;22;20030;-78
2022/10/03 08:22:52;;;;;;;14.25;7.25;;;;;;;;;;12975494;22;20420;-78
2022/10/03 08:28:13;;;;;;;10.85;7.60;;;;;;;;;;12947086;22;20448;-78
2022/10/03 08:33:23;;;;;;;13.07;6.65;;;;;;;;;;12959981;22;20412;-78
2022/10/03 08:38:45;;;;;;;12.45;6.35;;;;;;;;;;12993270;22;20044;-77
2022/10/03 08:44:04;;;;;;;10.32;6.18;;;;;;;;;;12986778;22;20199;-79
2022/10/03 08:49:15;;;;;;;14.10;6.28;;;;;;;;;;12963178;22;20031;-79
2022/10/03 08:54:29;;;;;;;9.68;4.70;;;;;;;;;;12925930;22;20011;-78
2022/10/03 08:59:32;;;;;;;10.98;5.53;;;;;;;;;;12951148;22;20035;-82
2022/10/03 09:04:38;;;;;;;9.65;5.97;;;;;;;;;;12976375;22;20094;-79
2022/10/03 09:09:52;;;;;;;11.18;6.32;;;;;;;;;;12977703;22;20012;-80
2022/10/03 09:15:11;;;;;;;7.70;4.93;;;;;;;;;;12951806;22;20046;-78
2022/10/03 09:20:30;;;;;;;8.70;5.05;;;;;;;;;;12976038;22;20012;-77
2022/10/03 09:25:49;;;;;;;10.57;5.00;;;;;;;;;;12978003;22;20012;-78
2022/10/03 09:31:12;;;;;;;11.18;5.35;;;;;;;;;;12981426;22;20019;-77
2022/10/03 09:36:26;;;;;;;7.57;5.27;;;;;;;;;;13003292;22;20042;-79
2022/10/03 09:41:39;;;;;;;11.18;4.28;;;;;;;;;;13014349;22;20019;-79
2022/10/03 09:47:22;;;;;;;11.25;5.97;;;;;;;;;;13041616;22;20007;-79
2022/10/03 09:52:46;;;;;;;7.22;4.35;;;;;;;;;;12996668;22;20082;-78
2022/10/03 09:57:54;;;;;;;9.85;4.70;;;;;;;;;;12978757;22;20047;-77
2022/10/03 10:03:04;;;;;;;9.95;4.13;;;;;;;;;;12979628;22;20025;-77
2022/10/03 10:08:13;;;;;;;8.63;4.13;;;;;;;;;;12978754;22;20091;-77
2022/10/03 10:13:29;;;;;;;9.05;4.28;;;;;;;;;;12951541;22;20503;-76
2022/10/03 10:18:29;;;;;;;5.68;3.67;;;;;;;;;;12977094;22;20074;-76
2022/10/03 10:23:32;;;;;;;15.40;7.80;;;;;;;;;;12950685;22;20027;-77
2022/10/03 10:29:02;;;;;;;7.75;3.85;;;;;;;;;;12978215;22;20015;-78
2022/10/03 10:34:18;;;;;;;8.82;4.50;;;;;;;;;;12919657;22;20019;-77
2022/10/03 10:39:38;;;;;;;6.68;3.72;;;;;;;;;;12979656;22;20063;-77
2022/10/03 10:44:57;;;;;;;6.03;3.22;;;;;;;;;;12979352;22;20016;-76
2022/10/03 10:50:04;;;;;;;6.30;3.60;;;;;;;;;;12978513;22;20015;-75
2022/10/03 10:55:23;;;;;;;4.85;3.38;;;;;;;;;;12925570;22;20023;-76
2022/10/03 11:00:40;;;;;;;8.57;4.38;;;;;;;;;;12926480;22;20348;-76
2022/10/03 11:05:59;;;;;;;6.07;3.25;;;;;;;;;;12977798;22;20714;-76
2022/10/03 11:11:06;;;;;;;7.45;3.33;;;;;;;;;;12952421;22;20007;-75
2022/10/03 11:16:25;;;;;;;6.65;3.03;;;;;;;;;;12956655;22;20073;-76
2022/10/03 11:21:32;;;;;;;7.28;3.13;;;;;;;;;;12984514;22;20021;-77
2022/10/03 11:26:35;;;;;;;5.00;2.40;;;;;;;;;;12951404;22;20047;-75
2022/10/03 11:31:38;;;;;;;6.63;3.67;;;;;;;;;;12953797;22;20022;-74
2022/10/03 11:36:57;;;;;;;5.90;2.17;;;;;;;;;;12953067;22;20038;-78
2022/10/03 11:42:05;;;;;;;3.25;1.52;;;;;;;;;;12978977;22;20141;-76
2022/10/03 11:47:24;;;;;;;3.28;1.15;;;;;;;;;;12977915;22;20008;-76
2022/10/03 11:52:32;;;;;;;3.25;1.70;;;;;;;;;;12976917;22;20007;-74
2022/10/03 11:57:42;;;;;;;2.90;1.50;;;;;;;;;;12979281;22;20027;-76
2022/10/03 12:03:19;;;;;;;3.17;1.30;;;;;;;;;;12981147;22;20023;-77
2022/10/03 12:13:48;;;;;;;7.15;4.13;;;;;;;;;;13006720;22;20023;-77
2022/10/03 12:18:52;;;;;;;3.03;1.17;;;;;;;;;;13035444;22;20051;-78
2022/10/03 12:24:04;;;;;;;3.78;1.55;;;;;;;;;;13002331;22;20019;-79
2022/10/03 12:29:09;;;;;;;2.63;1.23;;;;;;;;;;12947755;22;20535;-79
2022/10/03 12:34:18;;;;;;;3.72;1.50;;;;;;;;;;12924655;22;20344;-79
2022/10/03 12:39:43;;;;;;;3.08;1.85;;;;;;;;;;12980243;22;20058;-80
2022/10/03 12:44:50;;;;;;;2.65;1.60;;;;;;;;;;12976312;22;20014;-78
2022/10/03 12:50:10;;;;;;;3.13;1.38;;;;;;;;;;12969872;22;20007;-78
2022/10/03 12:55:30;;;;;;;1.83;1.00;;;;;;;;;;12976516;22;20026;-77
2022/10/03 13:00:48;;;;;;;3.50;1.33;;;;;;;;;;12979280;22;20317;-81
2022/10/03 13:06:07;;;;;;;5.03;1.70;;;;;;;;;;12946160;22;20059;-77
2022/10/03 13:11:07;;;;;;;6.55;3.88;;;;;;;;;;12974615;22;20008;-76
2022/10/03 13:16:14;;;;;;;8.80;3.77;;;;;;;;;;12975414;22;20024;-80
2022/10/03 13:21:35;;;;;;;4.40;2.67;;;;;;;;;;12942649;22;20016;-78
2022/10/03 13:26:45;;;;;;;4.25;1.98;;;;;;;;;;12964546;22;20015;-79
2022/10/03 13:32:00;;;;;;;3.53;1.55;;;;;;;;;;12943996;22;20011;-76
2022/10/03 13:37:13;;;;;;;5.47;2.33;;;;;;;;;;12974582;22;20016;-79
2022/10/03 13:42:18;;;;;;;4.20;2.45;;;;;;;;;;12977651;22;20448;-77
2022/10/03 13:47:21;;;;;;;3.50;1.83;;;;;;;;;;12949186;22;20019;-78
2022/10/03 13:52:22;;;;;;;3.17;1.77;;;;;;;;;;12977161;22;20014;-77
2022/10/03 13:57:28;;;;;;;2.30;1.40;;;;;;;;;;12977290;22;20020;-77
2022/10/03 14:02:42;;;;;;;3.35;1.60;;;;;;;;;;12951846;22;20015;-78
2022/10/03 14:08:02;;;;;;;4.55;1.90;;;;;;;;;;12977960;22;20011;-79
2022/10/03 14:13:21;;;;;;;4.88;1.83;;;;;;;;;;12979392;22;20111;-77
2022/10/03 14:18:36;;;;;;;5.15;1.50;;;;;;;;;;12977941;22;20019;-78
2022/10/03 14:23:42;;;;;;;3.42;1.80;;;;;;;;;;12977290;22;20016;-80
2022/10/03 14:28:43;;;;;;;4.45;1.77;;;;;;;;;;12950707;22;20111;-73
2022/10/03 14:33:43;;;;;;;15.10;6.90;;;;;;;;;;12984852;22;20014;-75
2022/10/03 14:39:00;;;;;;;4.07;1.50;;;;;;;;;;13032430;22;20019;-75
2022/10/03 14:44:04;;;;;;;3.20;1.52;;;;;;;;;;13018678;22;20234;-78
2022/10/03 14:49:06;;;;;;;4.32;1.70;;;;;;;;;;12995434;22;20069;-79
2022/10/03 14:54:36;;;;;;;4.78;1.77;;;;;;;;;;13035496;22;20320;-78
2022/10/03 14:59:37;;;;;;;5.18;1.80;;;;;;;;;;12982216;22;20019;-80
2022/10/03 15:04:40;;;;;;;2.72;1.45;;;;;;;;;;12927679;22;20016;-78
2022/10/03 15:09:48;;;;;;;4.13;1.63;;;;;;;;;;12957698;22;20384;-80
2022/10/03 15:15:04;;;;;;;2.78;1.67;;;;;;;;;;12994990;22;20026;-79
2022/10/03 15:20:06;;;;;;;4.20;2.08;;;;;;;;;;12998182;22;19991;-81
2022/10/03 15:25:18;;;;;;;3.28;2.00;;;;;;;;;;13010041;22;20031;-79
2022/10/03 15:30:29;;;;;;;4.25;2.17;;;;;;;;;;13022411;22;20003;-79
2022/10/03 15:35:35;;;;;;;6.68;1.77;;;;;;;;;;12955485;22;20045;-77
2022/10/03 15:40:39;;;;;;;3.75;2.20;;;;;;;;;;12975455;22;20020;-77
2022/10/03 15:45:40;;;;;;;6.25;2.60;;;;;;;;;;12977185;22;20422;-76
2022/10/03 15:50:42;;;;;;;5.40;2.50;;;;;;;;;;12950094;22;20016;-76
2022/10/03 15:55:55;;;;;;;3.97;1.88;;;;;;;;;;12949598;22;20879;-77
2022/10/03 16:01:07;;;;;;;4.57;2.63;;;;;;;;;;12977731;22;20008;-78
2022/10/03 16:06:16;;;;;;;5.53;3.20;;;;;;;;;;12978458;22;20015;-75
2022/10/03 16:11:23;;;;;;;4.80;3.00;;;;;;;;;;12980679;22;20703;-78
2022/10/03 16:16:46;;;;;;;5.88;3.25;;;;;;;;;;12978920;22;20038;-77
2022/10/03 16:21:48;;;;;;;5.32;2.40;;;;;;;;;;12979447;22;20620;-77
2022/10/03 16:26:54;;;;;;;4.32;2.35;;;;;;;;;;12960213;22;20021;-76
2022/10/03 16:32:08;;;;;;;4.57;3.05;;;;;;;;;;12982429;22;20020;-76
2022/10/03 16:37:30;;;;;;;3.08;2.20;;;;;;;;;;12977101;22;20445;-75
2022/10/03 16:42:44;;;;;;;3.05;1.50;;;;;;;;;;12950280;22;20014;-78
2022/10/03 16:47:46;;;;;;;2.67;2.05;;;;;;;;;;12950054;22;20007;-77
2022/10/03 16:52:47;;;;;;;3.15;1.77;;;;;;;;;;12977634;22;20016;-76
2022/10/03 16:57:51;;;;;;;5.93;3.00;;;;;;;;;;12950575;22;20047;-76
2022/10/03 17:02:53;;;;;;;3.47;2.75;;;;;;;;;;12979414;22;20014;-78
2022/10/03 17:08:00;;;;;;;6.05;2.60;;;;;;;;;;13005222;22;20007;-80
2022/10/03 17:13:03;;;;;;;5.70;2.55;;;;;;;;;;13022069;22;20004;-79
2022/10/03 17:18:15;;;;;;;3.55;2.15;;;;;;;;;;12995670;22;20031;-75
2022/10/03 17:23:16;;;;;;;2.87;2.20;;;;;;;;;;13015858;22;20031;-77
2022/10/03 17:28:38;;;;;;;5.18;2.63;;;;;;;;;;12982571;22;20022;-76
2022/10/03 17:33:45;;;;;;;4.15;2.10;;;;;;;;;;12981939;22;20085;-78
2022/10/03 17:39:08;;;;;;;6.22;2.42;;;;;;;;;;12954325;22;20081;-77
2022/10/03 17:44:20;;;;;;;5.90;2.60;;;;;;;;;;12981580;22;20016;-78
2022/10/03 17:49:28;;;;;;;5.07;2.60;;;;;;;;;;12982328;22;20464;-77
2022/10/03 17:54:31;;;;;;;5.55;2.70;;;;;;;;;;12978640;22;20003;-76
2022/10/03 18:00:04;;;;;;;3.20;2.72;;;;;;;;;;12950812;22;20016;-76
2022/10/03 18:05:08;;;;;;;5.75;3.38;;;;;;;;;;12949697;22;20027;-75
2022/10/03 18:10:28;;;;;;;4.20;3.20;;;;;;;;;;12977448;22;20210;-76
2022/10/03 18:15:47;;;;;;;8.13;4.20;;;;;;;;;;12976986;22;20034;-76
2022/10/03 18:20:57;;;;;;;6.03;3.50;;;;;;;;;;12950934;22;20428;-78
2022/10/03 18:26:03;;;;;;;13.57;5.32;;;;;;;;;;12978169;22;20039;-76
2022/10/03 18:31:03;;;;;;;10.88;5.60;;;;;;;;;;12950134;22;20035;-75
2022/10/03 18:36:16;;;;;;;10.73;4.87;;;;;;;;;;12948507;22;20379;-76
2022/10/03 18:41:18;;;;;;;10.18;5.05;;;;;;;;;;12953034;22;20859;-76
2022/10/03 18:46:24;;;;;;;10.38;6.03;;;;;;;;;;12974788;22;20743;-77
2022/10/03 18:51:28;;;;;;;14.85;6.95;;;;;;;;;;12977768;22;20003;-77
2022/10/03 18:56:29;;;;;;;11.20;6.30;;;;;;;;;;12979254;22;20444;-78
2022/10/03 19:01:34;;;;;;;10.63;5.97;;;;;;;;;;12978776;22;20087;-78
2022/10/03 19:06:40;;;;;;;11.68;6.00;;;;;;;;;;12977806;22;20023;-77
2022/10/03 19:11:56;;;;;;;10.27;5.70;;;;;;;;;;12977687;22;20020;-78
2022/10/03 19:17:13;;;;;;;12.75;7.97;;;;;;;;;;12952614;22;20027;-77
2022/10/03 19:22:14;;;;;;;9.82;6.80;;;;;;;;;;12978300;22;20007;-78
2022/10/03 19:27:16;;;;;;;8.02;6.13;;;;;;;;;;12953922;22;20384;-79
2022/10/03 19:32:21;;;;;;;10.70;5.93;;;;;;;;;;12989198;22;19995;-82
2022/10/03 19:37:37;;;;;;;7.18;5.40;;;;;;;;;;13042094;22;20042;-82
2022/10/03 19:42:46;;;;;;;12.90;7.63;;;;;;;;;;13044882;22;20000;-83
2022/10/03 19:47:57;;;;;;;13.02;8.50;;;;;;;;;;13025318;22;20420;-81
2022/10/03 19:52:58;;;;;;;9.43;6.82;;;;;;;;;;12931384;22;20022;-82
2022/10/03 19:58:09;;;;;;;10.90;6.93;;;;;;;;;;12981889;22;20061;-82
2022/10/03 20:03:22;;;;;;;12.73;7.68;;;;;;;;;;12982435;22;20058;-81
2022/10/03 20:08:44;;;;;;;11.17;7.47;;;;;;;;;;12982438;22;20082;-82
2022/10/03 20:13:46;;;;;;;9.57;6.55;;;;;;;;;;12982429;22;20020;-81
2022/10/03 20:18:50;;;;;;;10.33;6.60;;;;;;;;;;12981322;22;20019;-80
2022/10/03 20:23:51;;;;;;;9.20;6.70;;;;;;;;;;12927755;22;20345;-80
2022/10/03 20:28:59;;;;;;;11.10;6.50;;;;;;;;;;12979630;22;20035;-80
2022/10/03 20:34:10;;;;;;;11.73;6.88;;;;;;;;;;12986131;22;20277;-82
2022/10/03 20:39:33;;;;;;;13.00;8.27;;;;;;;;;;12993438;22;20054;-81
2022/10/03 20:44:57;;;;;;;10.40;7.95;;;;;;;;;;12956313;22;20035;-82
2022/10/03 20:50:23;;;;;;;13.35;8.48;;;;;;;;;;12981972;22;20018;-80
2022/10/03 20:55:28;;;;;;;10.98;7.47;;;;;;;;;;12981889;22;20070;-79
2022/10/03 21:00:29;;;;;;;11.18;8.00;;;;;;;;;;13007008;22;20019;-80
2022/10/03 21:05:47;;;;;;;13.75;8.90;;;;;;;;;;13034469;22;20018;-80
2022/10/03 21:11:03;;;;;;;11.13;8.20;;;;;;;;;;13005171;22;20067;-81
2022/10/03 21:16:15;;;;;;;10.38;7.88;;;;;;;;;;13002885;22;20019;-78
2022/10/03 21:21:23;;;;;;;12.93;8.60;;;;;;;;;;12987611;22;20019;-81
2022/10/03 21:26:25;;;;;;;14.93;9.57;;;;;;;;;;12983402;22;20059;-81
2022/10/03 21:31:36;;;;;;;10.77;8.50;;;;;;;;;;12981370;22;20090;-79
2022/10/03 21:36:43;;;;;;;13.02;9.10;;;;;;;;;;12981335;22;20019;-79
2022/10/03 21:41:54;;;;;;;13.15;9.00;;;;;;;;;;12981514;22;20062;-81
2022/10/03 21:47:04;;;;;;;12.10;9.20;;;;;;;;;;12981682;22;20024;-79
2022/10/03 21:52:12;;;;;;;14.25;9.13;;;;;;;;;;12960524;22;20004;-78
2022/10/03 21:57:23;;;;;;;13.90;8.75;;;;;;;;;;13033681;22;20000;-80
2022/10/03 22:02:42;;;;;;;12.45;8.23;;;;;;;;;;13045546;22;20003;-80
2022/10/03 22:07:44;;;;;;;12.50;9.18;;;;;;;;;;13046410;22;20007;-79
2022/10/03 22:13:18;;;;;;;10.80;8.35;;;;;;;;;;13047528;22;20059;-79
2022/10/03 22:18:20;;;;;;;13.45;9.20;;;;;;;;;;12910048;22;20023;-80
2022/10/03 22:23:23;;;;;;;13.38;9.32;;;;;;;;;;12981868;22;20015;-79
2022/10/03 22:28:57;;;;;;;14.20;9.88;;;;;;;;;;12981903;22;19999;-79
2022/10/03 22:34:14;;;;;;;12.10;8.73;;;;;;;;;;12851440;22;20016;-80
2022/10/03 22:39:17;;;;;;;14.25;8.93;;;;;;;;;;12959391;22;20023;-79
2022/10/03 22:44:21;;;;;;;14.93;8.02;;;;;;;;;;12985000;22;20014;-80
2022/10/03 22:49:31;;;;;;;11.00;7.93;;;;;;;;;;12956226;22;20039;-79
2022/10/03 22:54:38;;;;;;;14.38;8.98;;;;;;;;;;12939906;22;20097;-78
2022/10/03 22:59:53;;;;;;;14.60;9.30;;;;;;;;;;12982660;22;20020;-78
2022/10/03 23:04:58;;;;;;;13.73;9.68;;;;;;;;;;12953894;22;20039;-76
2022/10/03 23:10:14;;;;;;;14.13;8.48;;;;;;;;;;12980887;22;20103;-79
2022/10/03 23:15:16;;;;;;;13.30;7.90;;;;;;;;;;12981522;22;20008;-77
2022/10/03 23:20:40;;;;;;;11.38;8.00;;;;;;;;;;12980461;22;20012;-79
2022/10/03 23:25:49;;;;;;;9.53;6.77;;;;;;;;;;12932744;22;20433;-76
2022/10/03 23:30:52;;;;;;;10.93;6.93;;;;;;;;;;12951295;22;20158;-75
2022/10/03 23:35:54;;;;;;;9.95;5.97;;;;;;;;;;12951243;22;20016;-76
2022/10/03 23:40:56;;;;;;;10.05;6.60;;;;;;;;;;12977968;22;20015;-75
2022/10/03 23:45:58;;;;;;;8.80;5.57;;;;;;;;;;12951395;22;20118;-75
2022/10/03 23:51:03;;;;;;;10.00;6.53;;;;;;;;;;12977511;22;20130;-79
2022/10/03 23:56:06;;;;;;;9.27;6.18;;;;;;;;;;12979014;22;20020;-78
